Time;durP1;ratioP1;P1;durP2;ratioP2;P2;SDS_P1;SDS_P2;PMS_P1;PMS_P2;Temp;Humidity;BMP_temperature;BMP_pressure;BME280_temperature;BME280_humidity;BME280_pressure;Samples;Min_cycle;Max_cycle;Signal;HPM_P1;HPM_P2
2022/01/13 06:00:14;;;;;;;30.07;27.17;;;3.00;97.20;;;;;;1694920;29;20184;-75
2022/01/13 06:01:06;;;;;;;29.17;26.17;;;3.00;97.20;;;;;;1694932;29;20612;-75
2022/01/13 06:01:57;;;;;;;30.20;27.23;;;3.00;97.20;;;;;;1694912;29;20215;-75
2022/01/13 06:02:49;;;;;;;29.17;26.30;;;3.00;97.20;;;;;;1694866;29;20207;-75
2022/01/13 06:03:40;;;;;;;29.60;26.70;;;3.00;97.20;;;;;;1694749;29;20462;-74
2022/01/13 06:04:31;;;;;;;28.53;25.80;;;3.00;97.20;;;;;;1694981;29;20210;-74
2022/01/13 06:05:23;;;;;;;27.48;24.75;;;3.00;97.20;;;;;;1694899;29;20244;-74
2022/01/13 06:06:14;;;;;;;29.73;26.88;;;3.00;97.20;;;;;;1694931;29;20248;-75
2022/01/13 06:07:05;;;;;;;29.23;26.43;;;3.00;97.20;;;;;;1694751;29;20208;-74
2022/01/13 06:07:56;;;;;;;30.50;27.60;;;3.00;97.20;;;;;;1694540;29;20663;-73
2022/01/13 06:08:48;;;;;;;29.87;26.87;;;3.10;97.20;;;;;;1694707;29;20227;-75
2022/01/13 06:09:39;;;;;;;29.85;26.85;;;3.10;97.20;;;;;;1694454;29;20470;-74
2022/01/13 06:10:31;;;;;;;29.30;26.30;;;3.10;97.20;;;;;;1694823;29;20274;-75
2022/01/13 06:11:23;;;;;;;30.77;27.50;;;3.10;97.20;;;;;;1694588;29;20204;-75
2022/01/13 06:12:16;;;;;;;30.73;27.63;;;3.20;97.20;;;;;;1694852;29;20200;-75
2022/01/13 06:13:07;;;;;;;29.73;26.83;;;3.10;97.20;;;;;;1694830;29;20683;-75
2022/01/13 06:13:59;;;;;;;29.10;26.10;;;3.10;97.20;;;;;;1694732;29;20656;-74
2022/01/13 06:14:49;;;;;;;29.38;26.63;;;3.10;97.20;;;;;;1694772;29;20203;-74
2022/01/13 06:15:42;;;;;;;30.33;27.40;;;3.10;97.20;;;;;;1694755;29;20210;-75
2022/01/13 06:16:33;;;;;;;30.23;27.23;;;3.10;97.20;;;;;;1694853;29;20208;-74
2022/01/13 06:17:25;;;;;;;29.20;26.40;;;3.10;97.20;;;;;;1694764;29;20660;-74
2022/01/13 06:18:17;;;;;;;30.58;27.58;;;3.10;97.20;;;;;;1694427;29;20448;-74
2022/01/13 06:19:08;;;;;;;28.50;25.58;;;3.10;97.20;;;;;;1694247;29;20570;-74
2022/01/13 06:20:00;;;;;;;30.37;27.27;;;3.10;97.20;;;;;;1694484;29;20206;-75
2022/01/13 06:20:51;;;;;;;31.05;28.02;;;3.20;97.20;;;;;;1694741;29;20204;-74
2022/01/13 06:21:42;;;;;;;29.33;26.48;;;3.20;97.20;;;;;;1694853;29;20208;-76
2022/01/13 06:22:33;;;;;;;28.40;25.58;;;3.20;97.20;;;;;;1694741;29;20204;-75
2022/01/13 06:23:25;;;;;;;28.17;25.57;;;3.20;97.20;;;;;;1694759;29;20192;-76
2022/01/13 06:24:16;;;;;;;28.83;26.00;;;3.20;97.20;;;;;;1694754;29;20503;-75
2022/01/13 06:25:10;;;;;;;30.60;27.50;;;3.20;97.20;;;;;;1694194;29;20196;-75
2022/01/13 06:26:03;;;;;;;29.30;26.42;;;3.10;97.20;;;;;;1694794;29;20212;-74
2022/01/13 06:26:55;;;;;;;28.77;25.98;;;3.10;97.20;;;;;;1694692;29;20664;-73
2022/01/13 06:27:48;;;;;;;28.92;25.92;;;3.20;97.20;;;;;;1694387;29;20255;-72
2022/01/13 06:28:39;;;;;;;30.15;27.15;;;3.20;97.20;;;;;;1694577;29;20235;-72
2022/01/13 06:29:31;;;;;;;28.13;25.38;;;3.20;97.20;;;;;;1694675;29;20564;-71
2022/01/13 06:30:22;;;;;;;29.58;26.42;;;3.20;97.20;;;;;;1694434;29;20212;-72
2022/01/13 06:31:15;;;;;;;29.70;26.60;;;3.20;97.20;;;;;;1694680;29;20239;-72
2022/01/13 06:32:06;;;;;;;28.73;25.98;;;3.20;97.20;;;;;;1694088;29;20472;-73
2022/01/13 06:32:58;;;;;;;30.02;26.95;;;3.20;97.20;;;;;;1694122;29;20233;-72
2022/01/13 06:33:49;;;;;;;28.65;25.80;;;3.10;97.20;;;;;;1694054;29;20204;-72
2022/01/13 06:34:41;;;;;;;29.80;26.90;;;3.10;97.20;;;;;;1694022;29;20733;-73
2022/01/13 06:35:31;;;;;;;29.15;26.42;;;3.10;97.20;;;;;;1693684;29;20199;-73
2022/01/13 06:36:23;;;;;;;29.40;26.57;;;3.10;97.20;;;;;;1694024;29;20200;-73
2022/01/13 06:37:14;;;;;;;29.70;26.90;;;3.10;97.20;;;;;;1693966;29;20511;-74
2022/01/13 06:38:06;;;;;;;30.00;26.80;;;3.10;97.20;;;;;;1693623;29;20204;-74
2022/01/13 06:38:57;;;;;;;28.48;25.58;;;3.10;97.20;;;;;;1693974;29;20248;-74
2022/01/13 06:39:49;;;;;;;28.90;26.02;;;3.10;97.20;;;;;;1693958;29;20208;-74
2022/01/13 06:40:40;;;;;;;28.52;25.65;;;3.10;97.20;;;;;;1693992;29;20211;-74
2022/01/13 06:41:33;;;;;;;28.63;25.90;;;3.00;97.20;;;;;;1693678;29;20242;-74
2022/01/13 06:42:24;;;;;;;29.58;26.60;;;3.10;97.20;;;;;;1689714;29;20295;-75
2022/01/13 06:43:15;;;;;;;29.40;26.02;;;3.10;97.20;;;;;;1687924;29;20208;-75
2022/01/13 06:44:07;;;;;;;30.47;27.57;;;3.10;97.20;;;;;;1693919;29;20230;-74
2022/01/13 06:44:58;;;;;;;30.92;27.77;;;3.20;97.20;;;;;;1694049;29;20262;-75
2022/01/13 06:45:49;;;;;;;29.80;26.80;;;3.20;97.20;;;;;;1694024;29;20224;-75
2022/01/13 06:46:42;;;;;;;29.60;26.70;;;3.20;97.20;;;;;;1693984;29;20267;-75
2022/01/13 06:47:33;;;;;;;30.65;27.75;;;3.30;97.20;;;;;;1693963;29;20711;-75
2022/01/13 06:48:24;;;;;;;29.25;26.45;;;3.30;97.20;;;;;;1694501;29;20604;-75
2022/01/13 06:49:16;;;;;;;30.00;27.10;;;3.30;97.20;;;;;;1694610;29;20203;-75
2022/01/13 06:50:08;;;;;;;30.88;27.77;;;3.30;97.20;;;;;;1694601;29;20260;-75
2022/01/13 06:51:00;;;;;;;32.10;26.63;;;3.30;97.20;;;;;;1694689;29;21000;-73
2022/01/13 06:51:50;;;;;;;28.73;25.83;;;3.30;97.20;;;;;;1694603;29;20207;-74
2022/01/13 06:52:42;;;;;;;30.67;27.50;;;3.30;97.20;;;;;;1694568;29;20204;-75
2022/01/13 06:53:33;;;;;;;31.15;27.88;;;3.30;97.20;;;;;;1694679;29;20240;-75
2022/01/13 06:54:25;;;;;;;32.03;28.77;;;3.30;97.20;;;;;;1694521;29;20224;-74
2022/01/13 06:55:16;;;;;;;31.13;27.92;;;3.30;97.20;;;;;;1694333;29;20248;-75
2022/01/13 06:56:08;;;;;;;29.35;26.35;;;3.30;97.20;;;;;;1694549;29;20204;-75
2022/01/13 06:56:58;;;;;;;30.77;27.77;;;3.30;97.20;;;;;;1694525;29;20283;-75
2022/01/13 06:57:50;;;;;;;29.30;26.37;;;3.20;97.20;;;;;;1694350;29;20208;-75
2022/01/13 06:58:44;;;;;;;29.15;26.25;;;3.20;97.20;;;;;;1694499;29;20459;-75
2022/01/13 06:59:36;;;;;;;28.33;25.52;;;3.20;97.20;;;;;;1694610;29;20679;-74
2022/01/13 07:00:27;;;;;;;27.92;25.13;;;3.10;97.20;;;;;;1694550;29;20219;-75
2022/01/13 07:01:21;;;;;;;29.17;26.17;;;3.10;97.20;;;;;;1694600;29;20283;-74
2022/01/13 07:02:14;;;;;;;27.98;25.27;;;3.00;97.20;;;;;;1694562;29;20954;-75
2022/01/13 07:03:06;;;;;;;26.10;23.60;;;3.00;97.20;;;;;;1694512;29;20208;-75
2022/01/13 07:03:56;;;;;;;27.02;24.33;;;2.90;97.20;;;;;;1694548;29;20706;-75
2022/01/13 07:04:48;;;;;;;26.83;24.23;;;2.90;97.20;;;;;;1694581;29;20219;-75
2022/01/13 07:05:39;;;;;;;27.25;24.45;;;2.90;97.20;;;;;;1694269;29;20979;-75
2022/01/13 07:06:30;;;;;;;29.20;26.30;;;2.80;97.20;;;;;;1694505;29;20271;-75
2022/01/13 07:07:21;;;;;;;28.45;25.65;;;2.80;97.20;;;;;;1694556;29;20223;-75
2022/01/13 07:08:13;;;;;;;29.08;25.23;;;2.80;97.20;;;;;;1694097;29;20204;-75
2022/01/13 07:09:06;;;;;;;28.80;26.00;;;2.80;97.20;;;;;;1694046;29;20211;-75
2022/01/13 07:09:58;;;;;;;28.05;25.00;;;2.70;97.20;;;;;;1694484;29;20206;-75
2022/01/13 07:10:49;;;;;;;27.85;25.05;;;2.70;97.20;;;;;;1694447;29;20227;-75
2022/01/13 07:11:41;;;;;;;28.80;25.80;;;2.70;97.20;;;;;;1694560;29;20203;-75
2022/01/13 07:12:32;;;;;;;28.38;25.65;;;2.70;97.20;;;;;;1694450;29;20244;-75
2022/01/13 07:13:23;;;;;;;28.43;25.53;;;2.70;97.20;;;;;;1694536;29;20497;-75
2022/01/13 07:14:15;;;;;;;31.83;25.77;;;2.70;97.20;;;;;;1694375;29;20242;-75
2022/01/13 07:15:08;;;;;;;30.02;26.92;;;2.70;97.20;;;;;;1694186;29;20208;-75
2022/01/13 07:16:00;;;;;;;28.10;25.17;;;2.70;97.20;;;;;;1694451;29;20212;-75
2022/01/13 07:16:51;;;;;;;27.52;24.88;;;2.70;97.20;;;;;;1694178;29;20204;-75
2022/01/13 07:17:44;;;;;;;26.70;23.90;;;2.70;97.20;;;;;;1694190;29;20203;-75
2022/01/13 07:18:38;;;;;;;27.27;24.58;;;2.70;97.20;;;;;;1694330;29;20912;-75
2022/01/13 07:19:31;;;;;;;27.77;24.95;;;2.70;97.20;;;;;;1694344;29;20207;-75
2022/01/13 07:20:22;;;;;;;26.45;23.67;;;2.60;97.20;;;;;;1694495;29;20208;-75
2022/01/13 07:21:15;;;;;;;28.67;25.83;;;2.60;97.20;;;;;;1694158;29;20232;-75
2022/01/13 07:22:09;;;;;;;26.90;24.30;;;2.70;97.20;;;;;;1694355;29;20203;-75
2022/01/13 07:23:01;;;;;;;28.38;25.38;;;2.70;97.20;;;;;;1694391;29;20251;-75
2022/01/13 07:23:52;;;;;;;27.58;24.77;;;2.70;97.20;;;;;;1694426;29;20243;-75
2022/01/13 07:24:44;;;;;;;28.80;25.80;;;2.70;97.20;;;;;;1694475;29;20242;-75
2022/01/13 07:25:35;;;;;;;28.33;25.55;;;2.70;97.20;;;;;;1694072;29;20226;-75
2022/01/13 07:26:26;;;;;;;27.95;25.15;;;2.70;97.20;;;;;;1694349;29;20231;-75
2022/01/13 07:27:18;;;;;;;29.10;25.97;;;2.80;97.20;;;;;;1694475;29;20206;-74
2022/01/13 07:28:10;;;;;;;29.00;25.88;;;2.80;97.20;;;;;;1694022;29;20440;-75
2022/01/13 07:29:02;;;;;;;28.45;25.52;;;2.80;97.20;;;;;;1694391;29;20203;-75
2022/01/13 07:29:53;;;;;;;28.10;25.38;;;2.80;97.20;;;;;;1694427;29;20211;-74
2022/01/13 07:30:44;;;;;;;26.93;24.23;;;2.80;97.20;;;;;;1694141;29;20206;-75
2022/01/13 07:31:36;;;;;;;28.77;25.73;;;2.80;97.20;;;;;;1694384;29;20207;-74
2022/01/13 07:32:28;;;;;;;28.60;25.63;;;2.90;97.20;;;;;;1694382;29;20210;-75
2022/01/13 07:33:20;;;;;;;28.23;25.48;;;2.90;97.20;;;;;;1694340;29;20288;-74
2022/01/13 07:34:12;;;;;;;28.40;25.50;;;2.90;97.20;;;;;;1694259;29;20571;-74
2022/01/13 07:35:04;;;;;;;27.02;24.23;;;2.90;97.20;;;;;;1694343;29;20204;-74
2022/01/13 07:35:56;;;;;;;27.25;24.55;;;3.00;97.20;;;;;;1694122;29;20675;-74
2022/01/13 07:36:46;;;;;;;28.30;25.40;;;3.00;97.20;;;;;;1694672;29;20218;-74
2022/01/13 07:37:39;;;;;;;27.70;24.80;;;3.00;97.20;;;;;;1694162;29;20207;-75
2022/01/13 07:38:30;;;;;;;27.27;24.52;;;3.00;97.20;;;;;;1694281;29;20259;-75
2022/01/13 07:39:21;;;;;;;28.45;25.65;;;2.90;97.20;;;;;;1694272;29;20208;-75
2022/01/13 07:40:15;;;;;;;27.57;24.93;;;2.90;97.20;;;;;;1694444;29;20282;-74
2022/01/13 07:41:05;;;;;;;29.33;26.38;;;2.90;97.20;;;;;;1694306;29;20710;-75
2022/01/13 07:41:58;;;;;;;27.93;25.23;;;2.90;97.20;;;;;;1694371;29;20664;-74
2022/01/13 07:42:49;;;;;;;29.30;26.30;;;2.90;97.20;;;;;;1694399;29;20214;-74
2022/01/13 07:43:42;;;;;;;28.70;25.77;;;2.90;97.20;;;;;;1694223;29;20208;-74
2022/01/13 07:44:33;;;;;;;28.67;25.85;;;2.90;97.20;;;;;;1694448;29;20684;-75
2022/01/13 07:45:24;;;;;;;27.73;25.00;;;2.90;97.20;;;;;;1694054;29;20553;-75
2022/01/13 07:46:15;;;;;;;28.48;25.42;;;2.90;97.20;;;;;;1694273;29;20699;-74
2022/01/13 07:47:07;;;;;;;29.03;26.13;;;3.00;97.20;;;;;;1694339;29;20564;-73
2022/01/13 07:47:58;;;;;;;29.38;26.25;;;3.00;97.20;;;;;;1694050;29;20208;-75
2022/01/13 07:48:51;;;;;;;28.90;25.40;;;3.00;97.20;;;;;;1694105;29;20310;-75
2022/01/13 07:49:42;;;;;;;28.13;25.23;;;3.00;97.20;;;;;;1694255;29;20212;-75
2022/01/13 07:50:33;;;;;;;30.13;27.10;;;3.00;97.20;;;;;;1694390;29;20231;-74
2022/01/13 07:51:24;;;;;;;27.35;24.67;;;3.00;97.20;;;;;;1694235;29;20786;-75
2022/01/13 07:52:16;;;;;;;28.10;25.10;;;3.00;97.20;;;;;;1694294;29;20684;-74
2022/01/13 07:53:07;;;;;;;28.90;25.90;;;3.00;97.20;;;;;;1694213;29;20208;-74
2022/01/13 07:53:59;;;;;;;30.43;26.47;;;3.00;97.20;;;;;;1694221;29;20228;-74
2022/01/13 07:54:49;;;;;;;31.00;27.73;;;3.00;97.20;;;;;;1694174;29;20235;-74
2022/01/13 07:55:42;;;;;;;29.60;26.40;;;3.00;97.20;;;;;;1694088;29;20207;-75
2022/01/13 07:56:34;;;;;;;28.65;25.55;;;3.00;97.20;;;;;;1694293;29;20211;-74
2022/01/13 07:57:25;;;;;;;27.48;24.58;;;3.00;97.20;;;;;;1694225;29;20618;-75
2022/01/13 07:58:16;;;;;;;27.45;24.55;;;3.00;97.20;;;;;;1693908;29;20605;-75
2022/01/13 07:59:08;;;;;;;31.37;25.87;;;3.00;97.20;;;;;;1694146;29;20574;-75
2022/01/13 07:59:59;;;;;;;35.50;28.65;;;3.00;97.20;;;;;;1694275;29;20476;-75
2022/01/13 08:00:50;;;;;;;29.93;26.73;;;2.90;97.20;;;;;;1694256;29;20212;-74
2022/01/13 08:01:41;;;;;;;32.63;27.08;;;3.00;97.20;;;;;;1694455;29;20588;-75
2022/01/13 08:02:33;;;;;;;30.07;26.93;;;3.00;97.20;;;;;;1694165;29;20218;-74
2022/01/13 08:03:24;;;;;;;30.48;27.27;;;2.90;97.20;;;;;;1694164;29;20208;-74
2022/01/13 08:04:17;;;;;;;31.90;27.10;;;3.00;97.20;;;;;;1694128;29;20216;-74
2022/01/13 08:05:09;;;;;;;32.40;27.48;;;3.00;97.20;;;;;;1694261;29;20200;-74
2022/01/13 08:06:01;;;;;;;31.85;28.45;;;3.00;97.20;;;;;;1694048;29;20743;-75
2022/01/13 08:06:52;;;;;;;30.00;26.83;;;3.00;97.20;;;;;;1694262;29;20266;-74
2022/01/13 08:07:43;;;;;;;29.43;26.33;;;3.10;97.20;;;;;;1694009;29;20231;-75
2022/01/13 08:08:35;;;;;;;30.60;27.00;;;3.10;97.20;;;;;;1693985;29;20448;-75
2022/01/13 08:09:27;;;;;;;29.90;26.83;;;3.10;97.20;;;;;;1694112;29;20263;-75
2022/01/13 08:10:18;;;;;;;31.33;27.73;;;3.20;97.20;;;;;;1694188;29;20208;-75
2022/01/13 08:11:10;;;;;;;31.73;26.37;;;3.20;97.20;;;;;;1694156;29;20283;-74
2022/01/13 08:12:01;;;;;;;30.65;27.58;;;3.20;97.20;;;;;;1694190;29;20204;-74
2022/01/13 08:12:53;;;;;;;30.40;26.80;;;3.30;97.20;;;;;;1694276;29;20204;-75
2022/01/13 08:13:45;;;;;;;30.17;27.02;;;3.30;97.20;;;;;;1693922;29;20443;-75
2022/01/13 08:14:36;;;;;;;31.00;27.60;;;3.30;97.20;;;;;;1694250;29;20203;-75
2022/01/13 08:15:28;;;;;;;28.70;25.87;;;3.20;97.20;;;;;;1693866;29;20296;-75
2022/01/13 08:16:19;;;;;;;31.35;27.35;;;3.20;97.20;;;;;;1694246;29;20212;-75
2022/01/13 08:17:19;;;;;;;30.50;27.27;;;3.20;97.20;;;;;;1693852;29;20218;-74
2022/01/13 08:20:30;;;;;;;32.42;29.05;;;3.30;97.20;;;;;;1694343;29;20256;-75
2022/01/13 08:21:22;;;;;;;32.40;29.17;;;3.30;97.20;;;;;;1694263;29;20204;-75
2022/01/13 08:22:13;;;;;;;29.83;26.73;;;3.40;97.20;;;;;;1694153;29;20562;-75
2022/01/13 08:23:06;;;;;;;29.95;26.85;;;3.30;97.20;;;;;;1694168;29;20730;-75
2022/01/13 08:23:57;;;;;;;31.80;27.88;;;3.30;97.20;;;;;;1694128;29;20877;-75
2022/01/13 08:24:48;;;;;;;32.33;29.00;;;3.30;97.20;;;;;;1693983;29;20723;-75
2022/01/13 08:25:39;;;;;;;31.85;28.48;;;3.30;97.20;;;;;;1693757;29;20586;-75
2022/01/13 08:26:32;;;;;;;30.20;26.83;;;3.20;97.20;;;;;;1694115;29;20566;-75
2022/01/13 08:27:23;;;;;;;29.92;26.73;;;3.20;97.20;;;;;;1694068;29;20483;-75
2022/01/13 08:28:14;;;;;;;28.20;25.20;;;3.30;97.20;;;;;;1693872;29;20204;-75
2022/01/13 08:29:05;;;;;;;30.23;27.13;;;3.30;97.20;;;;;;1693999;29;20804;-75
2022/01/13 08:29:57;;;;;;;28.40;25.43;;;3.30;97.20;;;;;;1694147;29;20208;-75
2022/01/13 08:30:48;;;;;;;28.80;26.00;;;3.30;97.20;;;;;;1694093;29;20690;-75
2022/01/13 08:31:39;;;;;;;28.85;25.95;;;3.30;97.20;;;;;;1694102;29;20207;-75
2022/01/13 08:32:31;;;;;;;30.77;27.47;;;3.30;97.20;;;;;;1694107;29;20204;-75
2022/01/13 08:33:22;;;;;;;31.52;28.42;;;3.40;97.20;;;;;;1694222;29;20208;-75
2022/01/13 08:34:16;;;;;;;31.90;28.45;;;3.40;97.20;;;;;;1694006;29;20282;-75
2022/01/13 08:35:10;;;;;;;29.95;26.73;;;3.40;97.20;;;;;;1693695;29;20593;-75
2022/01/13 08:36:02;;;;;;;30.55;27.35;;;3.40;97.20;;;;;;1694137;29;20287;-75
2022/01/13 08:36:53;;;;;;;29.45;26.25;;;3.50;97.20;;;;;;1694112;29;20715;-74
2022/01/13 08:37:45;;;;;;;29.53;26.50;;;3.50;97.20;;;;;;1693815;29;20574;-75
2022/01/13 08:38:35;;;;;;;28.02;25.15;;;3.50;97.20;;;;;;1694025;29;20529;-75
2022/01/13 08:39:27;;;;;;;29.40;26.33;;;3.50;97.20;;;;;;1693528;29;20288;-75
2022/01/13 08:40:18;;;;;;;27.80;25.10;;;3.50;97.20;;;;;;1694138;29;20472;-75
2022/01/13 08:41:10;;;;;;;28.47;25.47;;;3.50;97.20;;;;;;1694068;29;20200;-75
2022/01/13 08:42:00;;;;;;;29.50;26.27;;;3.50;97.20;;;;;;1694070;29;20444;-74
2022/01/13 08:42:52;;;;;;;29.73;26.63;;;3.50;97.20;;;;;;1694153;29;20204;-75
2022/01/13 08:43:43;;;;;;;27.90;25.10;;;3.60;97.20;;;;;;1693940;29;20222;-75
2022/01/13 08:44:34;;;;;;;28.77;25.97;;;3.50;97.20;;;;;;1694134;29;20222;-75
2022/01/13 08:45:25;;;;;;;29.60;26.60;;;3.50;97.20;;;;;;1693627;29;20238;-75
2022/01/13 08:46:17;;;;;;;30.03;26.83;;;3.50;97.20;;;;;;1694116;29;20206;-74
2022/01/13 08:47:09;;;;;;;28.55;25.58;;;3.50;97.20;;;;;;1694157;29;20200;-75
2022/01/13 08:48:00;;;;;;;28.65;25.65;;;3.50;97.20;;;;;;1693926;29;20208;-75
2022/01/13 08:48:52;;;;;;;28.10;25.20;;;3.60;97.20;;;;;;1693894;29;20290;-75
2022/01/13 08:49:43;;;;;;;27.45;24.70;;;3.60;97.20;;;;;;1694028;29;20682;-74
2022/01/13 08:50:37;;;;;;;27.77;24.98;;;3.60;97.20;;;;;;1694095;29;20747;-74
2022/01/13 08:51:27;;;;;;;29.00;26.10;;;3.60;97.20;;;;;;1694004;29;20204;-75
2022/01/13 08:52:19;;;;;;;29.43;26.33;;;3.60;97.20;;;;;;1694242;29;20200;-74
2022/01/13 08:53:11;;;;;;;27.88;25.13;;;3.70;97.20;;;;;;1694133;29;20215;-75
2022/01/13 08:54:03;;;;;;;28.40;25.50;;;3.70;97.20;;;;;;1693950;29;20262;-75
2022/01/13 08:54:55;;;;;;;29.33;26.35;;;3.70;97.20;;;;;;1693893;29;20721;-75
2022/01/13 08:55:47;;;;;;;28.05;25.08;;;3.70;97.20;;;;;;1693896;29;20618;-75
2022/01/13 08:56:38;;;;;;;27.42;24.73;;;3.80;97.20;;;;;;1694068;29;20212;-75
2022/01/13 08:57:30;;;;;;;30.65;27.48;;;3.80;97.20;;;;;;1693974;29;20663;-75
2022/01/13 08:58:22;;;;;;;30.08;27.00;;;3.90;97.20;;;;;;1693719;29;20215;-75
2022/01/13 08:59:13;;;;;;;29.17;26.20;;;3.90;97.20;;;;;;1693686;29;20243;-75
2022/01/13 09:00:07;;;;;;;27.17;24.57;;;4.00;97.20;;;;;;1694078;29;20214;-75
2022/01/13 09:00:58;;;;;;;27.30;24.58;;;4.00;97.20;;;;;;1694095;29;20452;-75
2022/01/13 09:01:49;;;;;;;28.58;25.63;;;4.10;97.20;;;;;;1694020;29;20245;-75
2022/01/13 09:02:43;;;;;;;28.17;25.30;;;4.10;97.20;;;;;;1693990;29;20212;-75
2022/01/13 09:03:34;;;;;;;26.73;24.02;;;4.10;97.20;;;;;;1694029;29;20208;-75
2022/01/13 09:04:25;;;;;;;28.13;25.33;;;4.10;97.20;;;;;;1694009;29;20228;-75
2022/01/13 09:05:18;;;;;;;27.50;24.83;;;4.10;97.20;;;;;;1693849;29;20232;-75
2022/01/13 09:06:11;;;;;;;28.05;25.30;;;4.10;97.20;;;;;;1693958;29;20204;-75
2022/01/13 09:07:02;;;;;;;27.40;24.55;;;4.10;97.20;;;;;;1694057;29;20208;-75
2022/01/13 09:07:54;;;;;;;26.23;23.48;;;4.20;97.20;;;;;;1693840;29;20282;-75
2022/01/13 09:08:45;;;;;;;27.02;24.35;;;4.30;97.20;;;;;;1693834;29;20215;-75
2022/01/13 09:09:37;;;;;;;27.05;24.25;;;4.30;97.20;;;;;;1693893;29;20235;-75
2022/01/13 09:10:28;;;;;;;27.10;24.38;;;4.30;97.20;;;;;;1693942;29;20664;-75
2022/01/13 09:11:20;;;;;;;27.43;24.63;;;4.30;97.20;;;;;;1694121;29;20581;-75
2022/01/13 09:12:10;;;;;;;27.20;24.50;;;4.30;97.20;;;;;;1694022;29;20968;-74
2022/01/13 09:13:03;;;;;;;27.57;24.87;;;4.30;97.20;;;;;;1694052;29;20609;-75
2022/01/13 09:13:57;;;;;;;29.17;26.00;;;4.40;97.20;;;;;;1693895;29;20572;-74
2022/01/13 09:14:50;;;;;;;26.73;24.10;;;4.40;97.20;;;;;;1694034;29;20208;-74
2022/01/13 09:15:45;;;;;;;27.50;24.70;;;4.40;97.20;;;;;;1693573;29;20204;-75
2022/01/13 09:16:43;;;;;;;26.10;23.58;;;4.40;97.20;;;;;;1693970;29;20244;-75
2022/01/13 09:17:33;;;;;;;27.42;24.63;;;4.50;97.20;;;;;;1693777;29;20207;-75
2022/01/13 09:18:44;;;;;;;27.50;24.80;;;4.50;97.20;;;;;;1693894;29;20242;-75
2022/01/13 09:19:35;;;;;;;28.27;25.38;;;4.50;97.20;;;;;;1694056;29;20228;-75
2022/01/13 09:20:27;;;;;;;28.13;25.33;;;4.60;97.20;;;;;;1694003;29;20219;-75
2022/01/13 09:21:19;;;;;;;28.95;26.15;;;4.60;97.20;;;;;;1693962;29;20223;-75
2022/01/13 09:22:10;;;;;;;27.77;25.00;;;4.70;97.20;;;;;;1693971;29;20216;-75
2022/01/13 09:23:01;;;;;;;29.20;26.10;;;4.70;97.20;;;;;;1693934;29;20211;-75
2022/01/13 09:23:54;;;;;;;28.37;25.63;;;4.80;97.20;;;;;;1693901;29;20204;-75
2022/01/13 09:24:44;;;;;;;27.75;24.92;;;4.80;97.20;;;;;;1693640;29;20974;-75
2022/01/13 09:25:37;;;;;;;28.60;25.67;;;4.90;97.20;;;;;;1693889;29;20660;-75
2022/01/13 09:26:27;;;;;;;35.65;25.23;;;5.00;97.20;;;;;;1693966;29;20207;-75
2022/01/13 09:27:19;;;;;;;28.83;26.07;;;5.00;97.20;;;;;;1693956;29;20694;-75
2022/01/13 09:28:10;;;;;;;27.60;24.90;;;5.00;97.20;;;;;;1693765;29;20200;-75
2022/01/13 09:29:02;;;;;;;27.50;24.10;;;5.10;97.20;;;;;;1693849;29;20200;-75
2022/01/13 09:29:52;;;;;;;30.02;26.88;;;5.10;97.20;;;;;;1694762;29;20739;-75
2022/01/13 09:30:44;;;;;;;28.67;25.67;;;5.20;97.20;;;;;;1695151;29;20646;-75
2022/01/13 09:31:37;;;;;;;27.58;24.63;;;5.20;97.20;;;;;;1695171;29;20622;-75
2022/01/13 09:32:29;;;;;;;28.98;25.30;;;5.20;97.20;;;;;;1695118;29;20750;-75
2022/01/13 09:33:21;;;;;;;26.98;24.38;;;5.30;97.20;;;;;;1695199;29;20762;-75
2022/01/13 09:34:13;;;;;;;28.63;25.70;;;5.30;97.20;;;;;;1695024;29;20271;-75
2022/01/13 09:35:05;;;;;;;27.27;24.65;;;5.40;97.20;;;;;;1694795;29;20206;-75
2022/01/13 09:35:57;;;;;;;26.70;23.95;;;5.40;97.20;;;;;;1695143;29;20691;-75
2022/01/13 09:36:49;;;;;;;26.95;24.30;;;5.50;97.20;;;;;;1695083;29;20317;-74
2022/01/13 09:37:40;;;;;;;24.95;22.27;;;5.60;97.20;;;;;;1694716;29;20230;-75
2022/01/13 09:38:32;;;;;;;23.98;21.65;;;5.60;97.20;;;;;;1694988;29;20204;-75
2022/01/13 09:39:23;;;;;;;26.70;23.85;;;5.60;97.20;;;;;;1695048;29;20702;-75
2022/01/13 09:40:15;;;;;;;24.97;22.47;;;5.70;97.20;;;;;;1695133;29;20668;-74
2022/01/13 09:41:07;;;;;;;25.20;22.60;;;5.70;97.20;;;;;;1695063;29;20489;-74
2022/01/13 09:41:58;;;;;;;23.73;21.23;;;5.80;97.20;;;;;;1695073;29;20204;-74
2022/01/13 09:42:51;;;;;;;23.83;21.15;;;5.80;97.20;;;;;;1695021;29;20659;-75
2022/01/13 09:43:44;;;;;;;23.55;21.20;;;5.80;97.20;;;;;;1695025;29;20235;-75
2022/01/13 09:44:36;;;;;;;22.63;20.10;;;5.90;97.20;;;;;;1695182;29;20230;-75
2022/01/13 09:45:27;;;;;;;23.25;20.95;;;5.90;97.20;;;;;;1694741;29;20239;-75
2022/01/13 09:46:18;;;;;;;22.40;20.20;;;6.00;97.20;;;;;;1695129;29;20200;-75
2022/01/13 09:47:09;;;;;;;22.10;19.20;;;6.00;97.20;;;;;;1694980;29;20447;-75
2022/01/13 09:48:01;;;;;;;22.07;19.77;;;6.00;97.20;;;;;;1694764;29;20218;-75
2022/01/13 09:48:53;;;;;;;20.90;18.77;;;6.10;97.20;;;;;;1694945;29;20216;-75
2022/01/13 09:49:45;;;;;;;21.70;19.60;;;6.20;97.20;;;;;;1694982;29;20228;-75
2022/01/13 09:50:36;;;;;;;19.60;17.60;;;6.20;97.20;;;;;;1695064;29;20305;-74
2022/01/13 09:51:27;;;;;;;19.15;17.23;;;6.30;97.20;;;;;;1694958;29;20207;-75
2022/01/13 09:52:22;;;;;;;16.83;15.13;;;6.40;97.20;;;;;;1694913;29;20204;-75
2022/01/13 09:53:14;;;;;;;16.95;15.35;;;6.50;97.20;;;;;;1694975;29;20683;-75
2022/01/13 09:54:05;;;;;;;15.73;14.23;;;6.60;97.20;;;;;;1694814;29;20284;-75
2022/01/13 09:54:57;;;;;;;15.30;13.80;;;6.70;97.20;;;;;;1694749;29;20200;-75
2022/01/13 09:55:49;;;;;;;15.05;13.55;;;6.80;97.20;;;;;;1694936;29;20254;-74
2022/01/13 09:56:40;;;;;;;16.60;15.00;;;6.80;97.20;;;;;;1694965;29;20612;-75
2022/01/13 09:57:31;;;;;;;15.20;13.68;;;6.90;97.20;;;;;;1694935;29;20223;-75
2022/01/13 09:58:23;;;;;;;16.20;14.60;;;6.90;97.20;;;;;;1694679;29;20219;-75
2022/01/13 09:59:14;;;;;;;17.95;16.27;;;7.00;97.20;;;;;;1694901;29;20452;-75
2022/01/13 10:00:07;;;;;;;16.80;15.10;;;7.10;97.20;;;;;;1694934;29;20204;-75
2022/01/13 10:00:58;;;;;;;19.17;16.50;;;7.20;97.20;;;;;;1695021;29;20495;-75
2022/01/13 10:01:49;;;;;;;18.70;16.97;;;7.30;97.20;;;;;;1694926;29;20211;-74
2022/01/13 10:02:40;;;;;;;20.00;17.92;;;7.30;97.20;;;;;;1694912;29;20490;-75
2022/01/13 10:03:33;;;;;;;19.20;17.20;;;7.40;97.20;;;;;;1694943;29;20214;-75
2022/01/13 10:04:24;;;;;;;20.00;18.02;;;7.50;97.20;;;;;;1694778;29;20223;-74
2022/01/13 10:05:17;;;;;;;21.17;19.00;;;7.60;97.20;;;;;;1694655;29;20238;-75
2022/01/13 10:06:10;;;;;;;20.02;18.00;;;7.70;97.20;;;;;;1694881;29;20246;-75
2022/01/13 10:07:02;;;;;;;20.00;17.95;;;7.70;97.20;;;;;;1694668;29;20235;-75
2022/01/13 10:07:55;;;;;;;19.25;17.45;;;7.80;97.20;;;;;;1694416;29;20304;-75
2022/01/13 10:08:48;;;;;;;20.90;18.80;;;7.90;97.20;;;;;;1694730;29;20208;-75
2022/01/13 10:09:52;;;;;;;21.35;19.15;;;8.10;97.20;;;;;;1694850;29;20227;-75
2022/01/13 10:10:44;;;;;;;21.92;19.83;;;8.30;97.20;;;;;;1694903;29;20204;-75
2022/01/13 10:11:39;;;;;;;21.20;19.10;;;8.50;97.20;;;;;;1694877;29;20211;-75
2022/01/13 10:12:36;;;;;;;20.92;18.92;;;8.60;97.20;;;;;;1694861;29;20218;-75
2022/01/13 10:13:40;;;;;;;21.58;19.48;;;8.80;97.20;;;;;;1694950;29;20208;-75
2022/01/13 10:16:53;;;;;;;22.55;20.15;;;9.30;97.20;;;;;;1694242;29;20211;-75
2022/01/13 10:17:46;;;;;;;22.95;20.67;;;9.50;97.20;;;;;;1694588;29;20243;-75
2022/01/13 10:18:40;;;;;;;23.48;21.13;;;9.70;97.20;;;;;;1694868;29;20267;-75
2022/01/13 10:19:35;;;;;;;22.20;19.77;;;9.80;97.20;;;;;;1694844;29;20203;-75
2022/01/13 10:20:27;;;;;;;23.33;20.92;;;10.00;97.20;;;;;;1694878;29;20595;-75
2022/01/13 10:21:19;;;;;;;22.88;20.60;;;10.10;97.20;;;;;;1694959;29;20211;-75
2022/01/13 10:22:13;;;;;;;22.48;20.17;;;10.30;97.20;;;;;;1694846;29;20283;-74
2022/01/13 10:23:07;;;;;;;21.85;19.73;;;10.40;97.20;;;;;;1694830;29;20701;-75
2022/01/13 10:24:06;;;;;;;22.30;20.10;;;10.60;97.20;;;;;;1694835;29;20599;-75
2022/01/13 10:24:58;;;;;;;21.65;19.55;;;10.70;97.20;;;;;;1694679;29;20212;-75
2022/01/13 10:25:50;;;;;;;21.95;19.88;;;10.80;97.20;;;;;;1694553;29;20200;-75
2022/01/13 10:26:57;;;;;;;21.48;19.35;;;11.00;97.20;;;;;;1694896;29;20262;-75
2022/01/13 10:27:49;;;;;;;21.40;19.40;;;11.10;97.20;;;;;;1694495;29;20235;-76
2022/01/13 10:28:40;;;;;;;23.20;21.10;;;11.30;97.20;;;;;;1694692;29;20219;-75
2022/01/13 10:29:46;;;;;;;23.00;20.70;;;11.40;97.20;;;;;;1694659;29;20211;-75
2022/01/13 10:30:38;;;;;;;22.10;19.90;;;11.60;97.20;;;;;;1694886;29;20674;-74
2022/01/13 10:31:47;;;;;;;25.80;19.20;;;11.70;97.20;;;;;;1694750;29;20259;-75